Time;durP1;ratioP1;P1;durP2;ratioP2;P2;SDS_P1;SDS_P2;PMS_P1;PMS_P2;Temp;Humidity;BMP_temperature;BMP_pressure;BME280_temperature;BME280_humidity;BME280_pressure;Samples;Min_cycle;Max_cycle;Signal;HPM_P1;HPM_P2
2022/08/18 00:00:12;;;;;;;;;;;;;;;26.24;49.63;100922.84;5025856;28;20037;-53
2022/08/18 00:02:39;;;;;;;;;;;;;;;26.21;49.61;100912.44;5026032;28;19943;-52
2022/08/18 00:05:04;;;;;;;;;;;;;;;26.19;49.62;100906.38;5022372;28;19932;-53
2022/08/18 00:07:31;;;;;;;;;;;;;;;26.16;49.72;100910.31;5030049;28;19925;-53
2022/08/18 00:09:57;;;;;;;;;;;;;;;26.17;49.99;100917.38;5018002;28;20291;-54
2022/08/18 00:12:31;;;;;;;;;;;;;;;26.15;49.78;100911.31;5024742;28;19925;-52
2022/08/18 00:15:02;;;;;;;;;;;;;;;26.14;49.91;100915.03;5024379;28;19928;-52
2022/08/18 00:17:27;;;;;;;;;;;;;;;26.13;49.91;100905.28;5022447;28;20542;-53
2022/08/18 00:19:52;;;;;;;;;;;;;;;26.11;49.98;100901.94;5027983;28;19932;-54
2022/08/18 00:22:19;;;;;;;;;;;;;;;26.10;50.14;100905.63;5019824;28;20007;-52
2022/08/18 00:24:45;;;;;;;;;;;;;;;26.08;50.10;100910.38;5020200;28;19917;-54
2022/08/18 00:27:11;;;;;;;;;;;;;;;26.07;50.22;100899.78;5018402;28;19925;-53
2022/08/18 00:29:36;;;;;;;;;;;;;;;26.05;50.15;100902.66;5018255;28;19921;-56
2022/08/18 00:32:10;;;;;;;;;;;;;;;26.02;50.44;100900.34;5023032;28;19921;-56
2022/08/18 00:34:36;;;;;;;;;;;;;;;25.99;50.22;100898.88;5022791;28;19929;-52
2022/08/18 00:37:01;;;;;;;;;;;;;;;25.96;50.23;100896.53;5021895;28;19922;-52
2022/08/18 00:39:26;;;;;;;;;;;;;;;25.93;50.48;100904.16;5025020;28;19956;-52
2022/08/18 00:41:51;;;;;;;;;;;;;;;25.90;50.50;100901.84;5025890;28;20392;-52
2022/08/18 00:44:17;;;;;;;;;;;;;;;25.89;50.47;100909.06;5022247;28;19936;-52
2022/08/18 00:46:42;;;;;;;;;;;;;;;25.87;50.62;100895.78;5027243;28;20315;-52
2022/08/18 00:49:08;;;;;;;;;;;;;;;25.85;50.84;100905.91;5028656;28;19929;-53
2022/08/18 00:51:36;;;;;;;;;;;;;;;25.84;50.91;100904.25;5026612;28;19932;-55
2022/08/18 00:54:11;;;;;;;;;;;;;;;25.84;50.96;100895.34;5028485;28;20317;-54
2022/08/18 00:56:47;;;;;;;;;;;;;;;25.83;50.85;100902.56;5026752;28;19924;-53
2022/08/18 00:59:16;;;;;;;;;;;;;;;25.82;50.91;100898.19;5028202;28;19921;-55
2022/08/18 01:01:43;;;;;;;;;;;;;;;25.80;51.14;100897.53;5022391;28;19928;-53
2022/08/18 01:04:14;;;;;;;;;;;;;;;25.79;51.15;100893.19;5030600;28;19921;-53
2022/08/18 01:06:43;;;;;;;;;;;;;;;25.77;51.13;100892.56;5026022;28;19925;-54
2022/08/18 01:09:10;;;;;;;;;;;;;;;25.72;51.25;100884.19;5028102;28;20601;-57
2022/08/18 01:11:37;;;;;;;;;;;;;;;25.72;51.23;100889.56;5025022;28;19931;-54
2022/08/18 01:14:03;;;;;;;;;;;;;;;25.70;51.45;100891.59;5025454;28;19933;-55
2022/08/18 01:22:01;;;;;;;;;;;;;;;25.64;51.35;100884.28;5030866;28;19974;-57
2022/08/18 01:27:17;;;;;;;;;;;;;;;25.58;51.59;100887.69;5028071;28;19998;-53
2022/08/18 01:29:46;;;;;;;;;;;;;;;25.55;51.81;100887.03;5027793;28;19921;-54
2022/08/18 01:32:18;;;;;;;;;;;;;;;25.53;51.75;100881.00;5050776;22;19911;-64
2022/08/18 01:34:46;;;;;;;;;;;;;;;25.54;51.72;100879.97;5042807;28;19940;-64
2022/08/18 01:37:13;;;;;;;;;;;;;;;25.54;51.81;100876.47;5041669;28;20086;-64
2022/08/18 01:39:38;;;;;;;;;;;;;;;25.52;51.79;100873.94;5040066;28;19924;-62
2022/08/18 01:42:04;;;;;;;;;;;;;;;25.50;51.92;100870.59;5025440;28;19929;-66
2022/08/18 01:44:29;;;;;;;;;;;;;;;25.49;51.94;100866.22;5027168;28;19933;-61
2022/08/18 01:46:55;;;;;;;;;;;;;;;25.47;52.06;100860.22;5038320;28;19924;-61
2022/08/18 01:49:21;;;;;;;;;;;;;;;25.47;52.04;100862.91;5032717;28;19955;-65
2022/08/18 01:51:47;;;;;;;;;;;;;;;25.44;52.15;100857.88;5037012;28;19923;-62
2022/08/18 01:54:13;;;;;;;;;;;;;;;25.40;52.05;100856.53;5032403;28;19924;-62
2022/08/18 01:56:39;;;;;;;;;;;;;;;25.39;52.20;100860.25;5031532;28;19969;-64
2022/08/18 01:59:06;;;;;;;;;;;;;;;25.37;52.20;100857.75;5025305;28;19982;-64
2022/08/18 02:01:36;;;;;;;;;;;;;;;25.37;52.19;100863.13;5025418;28;20367;-64
2022/08/18 02:04:02;;;;;;;;;;;;;;;25.36;52.27;100861.47;5029030;28;19998;-60
2022/08/18 02:06:27;;;;;;;;;;;;;;;25.36;52.37;100860.59;5038096;28;20383;-63
2022/08/18 02:08:53;;;;;;;;;;;;;;;25.33;52.15;100856.44;5029128;28;19970;-64
2022/08/18 02:11:18;;;;;;;;;;;;;;;25.31;52.40;100866.53;5025709;28;20020;-63
2022/08/18 02:13:43;;;;;;;;;;;;;;;25.29;52.41;100867.75;5029445;28;19932;-66
2022/08/18 02:16:09;;;;;;;;;;;;;;;25.25;52.57;100864.59;5034533;28;20339;-64
2022/08/18 02:18:35;;;;;;;;;;;;;;;25.22;52.57;100868.47;5035691;28;19972;-62
2022/08/18 02:21:09;;;;;;;;;;;;;;;25.21;52.53;100869.50;5038390;28;19925;-60
2022/08/18 02:23:34;;;;;;;;;;;;;;;25.20;52.73;100865.13;5037524;28;19925;-59
2022/08/18 02:26:02;;;;;;;;;;;;;;;25.20;52.75;100867.81;5027141;28;19986;-64
2022/08/18 02:28:28;;;;;;;;;;;;;;;25.20;52.70;100854.34;5023693;28;20006;-65
2022/08/18 02:30:53;;;;;;;;;;;;;;;25.21;52.73;100858.72;5031705;28;19936;-66
2022/08/18 02:33:18;;;;;;;;;;;;;;;25.20;52.77;100856.22;5028990;28;19960;-63
2022/08/18 02:35:50;;;;;;;;;;;;;;;25.19;52.98;100852.69;5022019;28;20561;-60
2022/08/18 02:38:15;;;;;;;;;;;;;;;25.16;52.80;100850.38;5030747;28;19925;-62
2022/08/18 02:40:41;;;;;;;;;;;;;;;25.14;52.85;100843.47;5024707;28;19932;-62
2022/08/18 02:43:08;;;;;;;;;;;;;;;25.11;53.04;100839.31;5020626;28;19925;-67
2022/08/18 02:45:33;;;;;;;;;;;;;;;25.07;52.85;100833.47;5026123;28;19956;-64
2022/08/18 02:47:59;;;;;;;;;;;;;;;25.06;53.01;100833.63;5028893;28;20370;-66
2022/08/18 02:50:24;;;;;;;;;;;;;;;25.06;53.15;100833.63;5022361;28;19929;-62
2022/08/18 02:52:49;;;;;;;;;;;;;;;25.05;53.19;100832.81;5036271;28;19967;-64
2022/08/18 02:55:15;;;;;;;;;;;;;;;25.05;53.16;100826.56;5018728;28;19933;-64
2022/08/18 02:57:45;;;;;;;;;;;;;;;25.04;53.13;100841.03;5035353;28;19931;-61
2022/08/18 03:00:13;;;;;;;;;;;;;;;25.03;53.31;100840.22;5025960;28;21215;-61
2022/08/18 03:02:38;;;;;;;;;;;;;;;25.03;53.31;100836.72;5030889;28;19935;-60
2022/08/18 03:05:04;;;;;;;;;;;;;;;25.01;53.37;100826.09;5026518;28;19925;-62
2022/08/18 03:07:29;;;;;;;;;;;;;;;24.99;53.35;100828.13;5032219;28;20038;-61
2022/08/18 03:09:55;;;;;;;;;;;;;;;24.93;53.49;100829.69;5025492;28;20047;-62
2022/08/18 03:12:20;;;;;;;;;;;;;;;24.89;53.54;100833.75;5027870;28;20431;-62
2022/08/18 03:14:45;;;;;;;;;;;;;;;24.86;53.84;100834.16;5034762;28;20051;-65
2022/08/18 03:17:13;;;;;;;;;;;;;;;24.83;53.86;100834.50;5023357;28;20004;-61
2022/08/18 03:19:39;;;;;;;;;;;;;;;24.80;53.83;100824.09;5027970;28;20447;-61
2022/08/18 03:22:07;;;;;;;;;;;;;;;24.77;54.10;100836.06;5027796;28;19935;-63
2022/08/18 03:24:33;;;;;;;;;;;;;;;24.73;53.96;100834.75;5031077;28;19921;-60
2022/08/18 03:27:00;;;;;;;;;;;;;;;24.73;54.01;100834.75;5035125;28;19925;-65
2022/08/18 03:29:26;;;;;;;;;;;;;;;24.72;54.13;100832.25;5028979;28;19980;-61
2022/08/18 03:31:51;;;;;;;;;;;;;;;24.72;54.08;100838.44;5025865;28;19920;-63
2022/08/18 03:34:18;;;;;;;;;;;;;;;24.71;54.20;100839.47;5035300;28;20466;-64
2022/08/18 03:36:44;;;;;;;;;;;;;;;24.69;54.13;100838.78;5025154;28;20107;-61
2022/08/18 03:39:11;;;;;;;;;;;;;;;24.68;54.25;100841.66;5026676;28;19936;-65
2022/08/18 03:41:38;;;;;;;;;;;;;;;24.67;54.04;100846.19;5025059;28;19925;-63
2022/08/18 03:44:03;;;;;;;;;;;;;;;24.68;54.11;100855.09;5033899;28;20284;-61
2022/08/18 03:46:28;;;;;;;;;;;;;;;24.66;54.33;100853.44;5021981;28;20414;-64
2022/08/18 03:48:55;;;;;;;;;;;;;;;24.66;54.12;100849.88;5031255;28;21523;-65
2022/08/18 03:51:24;;;;;;;;;;;;;;;24.65;54.19;100849.06;5029746;28;19931;-64
2022/08/18 03:53:50;;;;;;;;;;;;;;;24.67;54.22;100851.56;5029889;28;19974;-63
2022/08/18 03:56:17;;;;;;;;;;;;;;;24.69;54.20;100843.34;5023212;28;19920;-65
2022/08/18 03:58:44;;;;;;;;;;;;;;;24.70;54.21;100855.81;5026012;28;20437;-64
2022/08/18 04:01:11;;;;;;;;;;;;;;;24.70;54.17;100853.94;5026336;28;19921;-63
2022/08/18 04:03:37;;;;;;;;;;;;;;;24.71;54.29;100852.09;5020473;28;19935;-64
2022/08/18 04:06:02;;;;;;;;;;;;;;;24.74;54.16;100854.41;5025356;28;19924;-63
2022/08/18 04:08:27;;;;;;;;;;;;;;;24.74;54.13;100852.56;5028417;28;20338;-63
2022/08/18 04:10:53;;;;;;;;;;;;;;;24.74;54.31;100855.25;5030026;28;20013;-66
2022/08/18 04:13:18;;;;;;;;;;;;;;;24.77;54.10;100864.81;5035413;28;19921;-62
2022/08/18 04:15:43;;;;;;;;;;;;;;;24.77;54.07;100867.50;5032640;28;19983;-64
2022/08/18 04:18:10;;;;;;;;;;;;;;;24.79;54.12;100869.03;5035883;28;20011;-63
2022/08/18 04:20:36;;;;;;;;;;;;;;;24.83;54.21;100869.50;5028447;28;19940;-64
2022/08/18 04:23:01;;;;;;;;;;;;;;;24.86;54.04;100868.28;5027972;28;19925;-63
2022/08/18 04:25:27;;;;;;;;;;;;;;;24.90;53.99;100872.28;5031561;28;19970;-63
2022/08/18 04:27:56;;;;;;;;;;;;;;;24.92;53.82;100870.25;5041221;28;19967;-65
2022/08/18 04:30:22;;;;;;;;;;;;;;;24.92;53.94;100871.09;5020717;28;19933;-64
2022/08/18 04:32:49;;;;;;;;;;;;;;;24.93;53.94;100867.38;5032712;28;19929;-63
2022/08/18 04:35:14;;;;;;;;;;;;;;;24.94;53.82;100866.38;5041689;28;19937;-64
2022/08/18 04:37:39;;;;;;;;;;;;;;;24.95;53.92;100865.34;5041168;28;20030;-61
2022/08/18 04:40:06;;;;;;;;;;;;;;;24.96;54.00;100867.03;5044603;28;20157;-62
2022/08/18 04:42:31;;;;;;;;;;;;;;;24.99;54.02;100867.69;5038476;28;19929;-63
2022/08/18 04:44:57;;;;;;;;;;;;;;;25.01;54.04;100871.84;5038608;28;20348;-62
2022/08/18 04:47:22;;;;;;;;;;;;;;;25.02;53.90;100873.53;5025435;28;19928;-65
2022/08/18 04:49:49;;;;;;;;;;;;;;;25.03;53.70;100871.69;5027935;28;20387;-62
2022/08/18 04:55:00;;;;;;;;;;;;;;;25.06;53.65;100868.63;5045273;28;19940;-64
2022/08/18 04:57:25;;;;;;;;;;;;;;;25.07;53.63;100878.38;5036922;28;19963;-59
2022/08/18 04:59:51;;;;;;;;;;;;;;;25.05;53.77;100881.25;5035167;28;20041;-64
2022/08/18 05:02:17;;;;;;;;;;;;;;;25.04;53.84;100884.97;5038667;28;20012;-61
2022/08/18 05:04:45;;;;;;;;;;;;;;;25.03;53.94;100882.47;5028890;28;20388;-60
2022/08/18 05:07:11;;;;;;;;;;;;;;;25.02;53.64;100880.78;5038472;28;19967;-61
2022/08/18 05:09:38;;;;;;;;;;;;;;;24.99;53.76;100883.84;5039041;28;19978;-62
2022/08/18 05:12:04;;;;;;;;;;;;;;;24.96;53.81;100888.56;5039808;28;19924;-62
2022/08/18 05:14:30;;;;;;;;;;;;;;;24.96;53.65;100888.56;5032733;28;21050;-64
2022/08/18 05:16:59;;;;;;;;;;;;;;;24.95;53.68;100886.06;5031009;28;19925;-64
2022/08/18 05:19:25;;;;;;;;;;;;;;;24.93;53.78;100888.91;5022655;28;19960;-62
2022/08/18 05:21:52;;;;;;;;;;;;;;;24.93;53.71;100888.91;5022603;28;20031;-67
2022/08/18 05:24:17;;;;;;;;;;;;;;;24.95;53.77;100891.44;5042145;28;19921;-60
2022/08/18 05:26:43;;;;;;;;;;;;;;;24.94;53.87;100893.28;5041138;28;19996;-63
2022/08/18 05:29:09;;;;;;;;;;;;;;;24.94;53.73;100893.28;5032839;28;20454;-57
2022/08/18 05:31:34;;;;;;;;;;;;;;;24.96;53.64;100899.31;5037834;28;19925;-64
2022/08/18 05:34:02;;;;;;;;;;;;;;;24.98;53.67;100906.38;5026561;28;19939;-67
2022/08/18 05:36:37;;;;;;;;;;;;;;;24.98;53.63;100904.50;5044221;28;20558;-62
2022/08/18 05:39:05;;;;;;;;;;;;;;;24.99;53.86;100898.13;5030517;28;19925;-62
2022/08/18 05:41:36;;;;;;;;;;;;;;;25.01;53.47;100900.66;5040962;28;21811;-60
2022/08/18 05:44:02;;;;;;;;;;;;;;;25.04;53.51;100900.25;5041919;28;19925;-61
2022/08/18 05:46:37;;;;;;;;;;;;;;;25.05;53.45;100901.94;5045207;28;20378;-62
2022/08/18 05:49:03;;;;;;;;;;;;;;;25.06;53.69;100901.78;5043087;28;19928;-64
2022/08/18 05:51:32;;;;;;;;;;;;;;;25.08;53.60;100901.59;5044547;28;19925;-59
2022/08/18 05:56:47;;;;;;;;;;;;;;;25.15;53.43;100899.84;5042853;28;19971;-66
2022/08/18 05:59:15;;;;;;;;;;;;;;;25.20;53.29;100896.63;5045565;28;19927;-65
2022/08/18 06:01:44;;;;;;;;;;;;;;;25.23;53.31;100889.00;5046565;28;20006;-62
2022/08/18 06:04:22;;;;;;;;;;;;;;;25.26;53.35;100893.19;5045735;28;20276;-60
2022/08/18 06:06:48;;;;;;;;;;;;;;;25.31;53.44;100892.66;5035614;28;19942;-63
2022/08/18 06:09:14;;;;;;;;;;;;;;;25.34;53.48;100885.03;5042177;28;20052;-62
2022/08/18 06:11:39;;;;;;;;;;;;;;;25.38;53.15;100888.19;5041520;28;20011;-63
2022/08/18 06:14:04;;;;;;;;;;;;;;;25.41;53.40;100901.28;5043990;28;19940;-62
2022/08/18 06:16:41;;;;;;;;;;;;;;;25.46;53.36;100892.69;5043476;28;19928;-62
2022/08/18 06:19:06;;;;;;;;;;;;;;;25.51;53.24;100899.19;5045646;28;19925;-61
2022/08/18 06:21:31;;;;;;;;;;;;;;;25.54;53.32;100892.63;5045180;28;19923;-60
2022/08/18 06:24:20;;;;;;;;;;;;;;;25.58;53.30;100898.47;5040064;28;19925;-60
2022/08/18 06:26:51;;;;;;;;;;;;;;;25.60;53.14;100891.88;5006100;28;20372;-62
2022/08/18 06:29:25;;;;;;;;;;;;;;;25.64;53.26;100897.75;5042503;28;19925;-60
2022/08/18 06:31:54;;;;;;;;;;;;;;;25.66;53.11;100903.75;5042260;28;19921;-61
2022/08/18 06:34:39;;;;;;;;;;;;;;;25.70;53.20;100899.69;5043634;28;19955;-62
2022/08/18 06:37:22;;;;;;;;;;;;;;;25.73;52.91;100896.63;5044381;28;19932;-64
2022/08/18 06:39:50;;;;;;;;;;;;;;;25.77;52.74;100905.16;5043792;28;19924;-63
2022/08/18 06:42:20;;;;;;;;;;;;;;;25.80;52.73;100900.25;5045951;28;19928;-65
2022/08/18 06:44:51;;;;;;;;;;;;;;;25.86;52.87;100907.59;5045128;28;20023;-64
2022/08/18 06:47:36;;;;;;;;;;;;;;;25.90;52.87;100912.63;5045959;28;20015;-64
2022/08/18 06:50:07;;;;;;;;;;;;;;;25.94;52.82;100908.53;5048150;28;20083;-63
2022/08/18 06:52:32;;;;;;;;;;;;;;;25.98;52.77;100909.81;5046034;28;19965;-64
2022/08/18 06:55:06;;;;;;;;;;;;;;;25.99;52.52;100898.00;5045872;28;19916;-65
2022/08/18 06:57:36;;;;;;;;;;;;;;;26.01;52.78;100909.44;5042123;28;20418;-64
2022/08/18 07:00:31;;;;;;;;;;;;;;;26.03;52.60;100904.72;5044136;28;19982;-62
2022/08/18 07:03:03;;;;;;;;;;;;;;;26.06;52.73;100903.50;5035444;28;19932;-61
2022/08/18 07:05:31;;;;;;;;;;;;;;;26.06;52.44;100898.94;5045155;28;19917;-64
2022/08/18 07:07:59;;;;;;;;;;;;;;;26.08;52.67;100896.91;5037571;28;19948;-69
2022/08/18 07:10:24;;;;;;;;;;;;;;;26.10;52.73;100894.00;5039642;28;19987;-67
2022/08/18 07:12:50;;;;;;;;;;;;;;;26.11;52.63;100895.72;5042403;28;20407;-69
2022/08/18 07:15:21;;;;;;;;;;;;;;;26.13;52.72;100894.50;5042565;28;19925;-68
2022/08/18 07:17:47;;;;;;;;;;;;;;;26.17;52.60;100897.66;5043337;28;19960;-67
2022/08/18 07:20:19;;;;;;;;;;;;;;;26.21;52.46;100907.03;5037583;28;19966;-66
2022/08/18 07:22:52;;;;;;;;;;;;;;;26.24;52.51;100906.66;5039902;28;19917;-65
2022/08/18 07:25:25;;;;;;;;;;;;;;;26.28;52.53;100907.13;5046130;28;19994;-65
2022/08/18 07:27:54;;;;;;;;;;;;;;;26.31;52.22;100898.66;5044251;28;20003;-67
2022/08/18 07:30:20;;;;;;;;;;;;;;;26.35;52.29;100901.81;5042091;28;20020;-67
2022/08/18 07:33:03;;;;;;;;;;;;;;;26.37;52.47;100903.31;5039916;28;20039;-64
2022/08/18 07:35:38;;;;;;;;;;;;;;;26.41;52.48;100906.44;5042655;28;19952;-64
2022/08/18 07:38:16;;;;;;;;;;;;;;;26.44;52.23;100906.06;5040733;28;20004;-64
2022/08/18 07:41:05;;;;;;;;;;;;;;;26.48;52.21;100919.00;5042762;28;19928;-63
2022/08/18 07:43:30;;;;;;;;;;;;;;;26.52;52.47;100913.22;5034502;28;19917;-64
2022/08/18 07:46:01;;;;;;;;;;;;;;;26.55;52.16;100912.81;5042598;28;19956;-65
2022/08/18 07:48:29;;;;;;;;;;;;;;;26.58;52.07;100912.44;5043160;28;19921;-65
2022/08/18 07:50:55;;;;;;;;;;;;;;;26.62;52.15;100909.16;5041101;28;20003;-64
2022/08/18 07:53:40;;;;;;;;;;;;;;;26.66;51.90;100909.66;5044609;28;20019;-64
2022/08/18 07:56:11;;;;;;;;;;;;;;;26.72;51.98;100916.13;5044854;28;19920;-65
2022/08/18 07:58:42;;;;;;;;;;;;;;;26.75;51.80;100919.28;5042444;28;20422;-62
2022/08/18 08:01:14;;;;;;;;;;;;;;;26.78;51.69;100924.31;5041357;28;19959;-64
2022/08/18 08:03:53;;;;;;;;;;;;;;;26.83;51.79;100914.84;5046600;28;19923;-64
2022/08/18 08:06:24;;;;;;;;;;;;;;;26.87;51.71;100921.50;5038809;28;19924;-63
2022/08/18 08:09:12;;;;;;;;;;;;;;;26.92;51.95;100921.75;5046452;28;20019;-64
2022/08/18 08:11:56;;;;;;;;;;;;;;;26.97;51.81;100922.03;5034618;28;20100;-64
2022/08/18 08:14:54;;;;;;;;;;;;;;;27.01;51.48;100928.69;5041839;28;19924;-64
2022/08/18 08:17:31;;;;;;;;;;;;;;;27.07;51.79;100936.03;5004182;28;20126;-65
2022/08/18 08:20:11;;;;;;;;;;;;;;;27.11;51.60;100933.78;5043386;28;20261;-65
2022/08/18 08:22:44;;;;;;;;;;;;;;;27.15;51.35;100935.06;5050688;28;19921;-64
2022/08/18 08:25:21;;;;;;;;;;;;;;;27.17;51.30;100935.72;5044410;28;19921;-65
2022/08/18 08:27:46;;;;;;;;;;;;;;;27.20;51.66;100946.13;5042991;28;20163;-64
2022/08/18 08:30:16;;;;;;;;;;;;;;;27.22;51.63;100944.06;5043556;28;19921;-64
2022/08/18 08:32:41;;;;;;;;;;;;;;;27.26;51.44;100947.22;5040946;28;19998;-63
2022/08/18 08:35:10;;;;;;;;;;;;;;;27.29;51.06;100951.38;5039843;28;19929;-64
2022/08/18 08:37:42;;;;;;;;;;;;;;;27.31;51.12;100947.44;5045625;28;19947;-65
2022/08/18 08:40:13;;;;;;;;;;;;;;;27.34;51.10;100960.56;5044450;28;19924;-63
2022/08/18 08:42:44;;;;;;;;;;;;;;;27.36;50.95;100950.41;5040210;28;19921;-63
2022/08/18 08:45:13;;;;;;;;;;;;;;;27.39;51.01;100951.88;5040375;28;19921;-64
2022/08/18 08:47:41;;;;;;;;;;;;;;;27.42;51.04;100948.78;5046275;28;20546;-63
2022/08/18 08:50:11;;;;;;;;;;;;;;;27.44;50.92;100946.72;5043458;28;19931;-64
2022/08/18 08:52:40;;;;;;;;;;;;;;;27.47;50.96;100943.69;5039782;28;20023;-64
2022/08/18 08:55:09;;;;;;;;;;;;;;;27.50;50.85;100947.84;5040237;28;20468;-64
2022/08/18 08:57:42;;;;;;;;;;;;;;;27.51;50.82;100946.81;5042339;28;20024;-64
2022/08/18 09:00:10;;;;;;;;;;;;;;;27.51;50.64;100944.13;5046724;28;19928;-64
2022/08/18 09:02:48;;;;;;;;;;;;;;;27.53;50.83;100948.28;5042542;28;20365;-64
2022/08/18 09:05:13;;;;;;;;;;;;;;;27.57;51.01;100948.75;5061664;28;19925;-63
2022/08/18 09:07:46;;;;;;;;;;;;;;;27.60;50.61;100948.34;5046579;28;19916;-62
2022/08/18 09:10:38;;;;;;;;;;;;;;;27.62;50.90;100940.88;5045176;28;20466;-64
2022/08/18 09:13:12;;;;;;;;;;;;;;;27.66;50.50;100936.75;5046239;28;19924;-64
2022/08/18 09:15:56;;;;;;;;;;;;;;;27.69;50.51;100941.75;5043654;28;19928;-64
2022/08/18 09:18:33;;;;;;;;;;;;;;;27.74;50.57;100937.63;5041025;28;20298;-64
2022/08/18 09:21:15;;;;;;;;;;;;;;;27.77;50.85;100937.22;5045276;28;20276;-65
2022/08/18 09:23:44;;;;;;;;;;;;;;;27.81;50.86;100933.09;5044705;28;19924;-63
2022/08/18 09:26:25;;;;;;;;;;;;;;;27.84;50.77;100933.53;5047223;28;19928;-64
2022/08/18 09:28:56;;;;;;;;;;;;;;;27.88;50.86;100933.13;5045279;28;20011;-64
2022/08/18 09:31:22;;;;;;;;;;;;;;;27.92;50.45;100926.28;5039958;28;20445;-63
2022/08/18 09:33:55;;;;;;;;;;;;;;;27.94;50.47;100924.22;5045563;28;19925;-64
2022/08/18 09:36:21;;;;;;;;;;;;;;;27.98;50.77;100926.34;5046454;28;20004;-64
2022/08/18 09:42:08;;;;;;;;;;;;;;;28.06;50.23;100919.09;5041528;28;19926;-64
2022/08/18 09:44:40;;;;;;;;;;;;;;;28.09;50.53;100921.38;5041169;28;19932;-64
2022/08/18 09:47:06;;;;;;;;;;;;;;;28.13;50.59;100909.16;5045084;28;20003;-64
2022/08/18 09:49:39;;;;;;;;;;;;;;;28.16;50.19;100913.31;5041343;28;20424;-64
2022/08/18 09:52:30;;;;;;;;;;;;;;;28.20;50.48;100907.34;5042708;28;19921;-65
2022/08/18 09:54:58;;;;;;;;;;;;;;;28.24;50.48;100900.47;5033359;28;20047;-65
2022/08/18 09:57:27;;;;;;;;;;;;;;;28.28;50.41;100899.03;5046226;28;19917;-65
2022/08/18 09:59:56;;;;;;;;;;;;;;;28.32;50.26;100895.94;5048878;28;19925;-65
2022/08/18 10:02:31;;;;;;;;;;;;;;;28.36;49.80;100891.78;5047428;28;19917;-63
2022/08/18 10:05:14;;;;;;;;;;;;;;;28.39;49.72;100894.06;5046942;28;19920;-65
2022/08/18 10:07:55;;;;;;;;;;;;;;;28.43;49.87;100887.22;5046255;28;19921;-65
2022/08/18 10:10:30;;;;;;;;;;;;;;;28.48;49.75;100889.31;5045090;28;19920;-64
2022/08/18 10:13:13;;;;;;;;;;;;;;;28.51;49.82;100895.13;5047410;28;19916;-65
2022/08/18 10:15:48;;;;;;;;;;;;;;;28.55;49.39;100890.97;5046780;28;20075;-65
2022/08/18 10:18:13;;;;;;;;;;;;;;;28.59;49.22;100889.53;5046218;28;19917;-64
2022/08/18 10:20:47;;;;;;;;;;;;;;;28.64;49.56;100882.69;5044305;28;19916;-65
2022/08/18 10:23:32;;;;;;;;;;;;;;;28.67;49.22;100882.25;5045644;28;20374;-64
2022/08/18 10:25:57;;;;;;;;;;;;;;;28.70;49.46;100876.44;5046924;28;20394;-65
2022/08/18 10:28:41;;;;;;;;;;;;;;;28.73;49.31;100876.06;5042217;28;19920;-64
2022/08/18 10:31:07;;;;;;;;;;;;;;;28.79;49.40;100883.38;5043142;28;19962;-64
2022/08/18 10:33:51;;;;;;;;;;;;;;;28.83;49.08;100884.59;5042687;28;20378;-64
2022/08/18 10:36:36;;;;;;;;;;;;;;;28.88;48.84;100879.41;5045384;28;19921;-64
2022/08/18 10:39:21;;;;;;;;;;;;;;;28.93;49.20;100876.06;5046701;28;19921;-65
2022/08/18 10:42:09;;;;;;;;;;;;;;;28.97;49.11;100869.22;5045149;28;19920;-64
2022/08/18 10:44:39;;;;;;;;;;;;;;;29.03;48.80;100859.41;5034685;28;20008;-61
2022/08/18 10:47:04;;;;;;;;;;;;;;;29.10;48.51;100864.81;5041528;28;19925;-64
2022/08/18 10:49:31;;;;;;;;;;;;;;;29.14;48.46;100864.19;5045896;28;19921;-64
2022/08/18 10:52:18;;;;;;;;;;;;;;;29.19;48.63;100858.19;5045317;28;19987;-61
2022/08/18 10:54:43;;;;;;;;;;;;;;;29.25;48.01;100859.22;5056057;28;19924;-64
2022/08/18 10:57:15;;;;;;;;;;;;;;;29.28;48.13;100856.91;5045485;28;19920;-63
2022/08/18 10:59:40;;;;;;;;;;;;;;;29.34;47.75;100864.19;5045222;28;19935;-64
2022/08/18 11:02:26;;;;;;;;;;;;;;;29.40;48.08;100859.84;5044377;28;19920;-65
2022/08/18 11:04:52;;;;;;;;;;;;;;;29.44;47.84;100855.66;5043317;28;19925;-63
2022/08/18 11:07:18;;;;;;;;;;;;;;;29.49;47.55;100857.75;5043537;28;19983;-63
2022/08/18 11:09:46;;;;;;;;;;;;;;;29.53;47.36;100853.53;5043152;28;20387;-67
2022/08/18 11:12:13;;;;;;;;;;;;;;;29.58;47.28;100855.59;5046248;28;19974;-67
2022/08/18 11:14:50;;;;;;;;;;;;;;;29.63;47.53;100853.09;5042881;28;20052;-67
2022/08/18 11:17:34;;;;;;;;;;;;;;;29.69;47.33;100857.69;5042020;28;19925;-66
2022/08/18 11:20:00;;;;;;;;;;;;;;;29.77;46.89;100857.44;5039517;28;19928;-67
2022/08/18 11:22:27;;;;;;;;;;;;;;;29.85;46.75;100855.56;5041541;28;20398;-67
2022/08/18 11:24:52;;;;;;;;;;;;;;;29.92;46.76;100846.34;5041543;28;19976;-65
2022/08/18 11:27:20;;;;;;;;;;;;;;;29.95;46.82;100835.06;5042557;28;19991;-64
2022/08/18 11:29:45;;;;;;;;;;;;;;;30.00;46.69;100839.88;5045095;28;20445;-66
2022/08/18 11:32:26;;;;;;;;;;;;;;;30.05;46.42;100834.63;5042679;28;19924;-65
2022/08/18 11:35:00;;;;;;;;;;;;;;;30.11;46.63;100835.63;5042329;28;19967;-65
2022/08/18 11:37:32;;;;;;;;;;;;;;;30.20;46.19;100841.63;5040791;28;19916;-67
2022/08/18 11:39:59;;;;;;;;;;;;;;;30.23;46.13;100841.19;5041729;28;20288;-67
2022/08/18 11:42:29;;;;;;;;;;;;;;;30.26;45.89;100836.16;5041772;28;19947;-67
2022/08/18 11:45:06;;;;;;;;;;;;;;;30.31;45.91;100842.81;5044142;28;19956;-66
2022/08/18 11:47:32;;;;;;;;;;;;;;;30.34;45.99;100832.38;5043823;28;19921;-65
2022/08/18 11:50:07;;;;;;;;;;;;;;;30.37;45.78;100829.22;5042822;28;19932;-66
2022/08/18 11:52:44;;;;;;;;;;;;;;;30.38;45.68;100820.03;5040978;28;19944;-66
2022/08/18 11:55:18;;;;;;;;;;;;;;;30.42;45.68;100818.53;5043568;28;19966;-65
2022/08/18 11:57:53;;;;;;;;;;;;;;;30.47;45.59;100817.06;5044004;28;19932;-64
2022/08/18 12:00:54;;;;;;;;;;;;;;;30.51;45.52;100810.13;5035638;28;19936;-66
2022/08/18 12:03:19;;;;;;;;;;;;;;;30.58;45.09;100805.53;4981267;28;19961;-66
2022/08/18 12:05:49;;;;;;;;;;;;;;;30.66;45.17;100794.38;5031288;28;19928;-67
2022/08/18 12:08:40;;;;;;;;;;;;;;;30.74;44.48;100795.16;5041818;28;19932;-66
2022/08/18 12:11:14;;;;;;;;;;;;;;;30.79;44.50;100792.59;5038023;28;19921;-67
2022/08/18 12:13:42;;;;;;;;;;;;;;;30.82;44.34;100787.56;5042688;28;19936;-65
2022/08/18 12:16:18;;;;;;;;;;;;;;;30.87;44.10;100785.00;5041223;28;19925;-66
2022/08/18 12:18:43;;;;;;;;;;;;;;;30.94;44.10;100789.56;5042718;28;19921;-66
2022/08/18 12:21:09;;;;;;;;;;;;;;;31.02;43.89;100783.81;5042704;28;19924;-66
2022/08/18 12:23:35;;;;;;;;;;;;;;;31.10;43.90;100779.97;5040259;28;19932;-66
2022/08/18 12:26:01;;;;;;;;;;;;;;;31.16;43.95;100782.66;5044928;28;19921;-66
2022/08/18 12:28:26;;;;;;;;;;;;;;;31.22;43.53;100778.22;5039315;28;19936;-66
2022/08/18 12:30:52;;;;;;;;;;;;;;;31.27;43.29;100770.22;5042664;28;19925;-66
2022/08/18 12:33:17;;;;;;;;;;;;;;;31.32;43.08;100775.81;5046753;28;19936;-62
2022/08/18 12:35:43;;;;;;;;;;;;;;;31.40;43.21;100780.13;5047318;28;19925;-66
2022/08/18 12:38:09;;;;;;;;;;;;;;;31.48;42.90;100781.69;5042590;28;20023;-64
2022/08/18 12:40:34;;;;;;;;;;;;;;;31.57;42.84;100774.88;5044743;28;19956;-63
2022/08/18 12:43:00;;;;;;;;;;;;;;;31.65;42.67;100767.47;5042839;28;19925;-65
2022/08/18 12:45:26;;;;;;;;;;;;;;;31.70;42.67;100768.50;5047439;28;19923;-66
2022/08/18 12:47:51;;;;;;;;;;;;;;;31.75;42.35;100760.47;5046556;28;19929;-66
2022/08/18 12:50:17;;;;;;;;;;;;;;;31.80;42.36;100770.66;5045178;28;19925;-64
2022/08/18 12:52:42;;;;;;;;;;;;;;;31.85;42.08;100772.69;5044183;28;21057;-66
2022/08/18 12:55:08;;;;;;;;;;;;;;;31.86;42.41;100767.00;5047276;28;20011;-61
2022/08/18 12:57:34;;;;;;;;;;;;;;;31.83;42.34;100763.94;5047498;28;19931;-66
2022/08/18 12:59:59;;;;;;;;;;;;;;;31.79;42.21;100760.84;5043545;28;19917;-66
2022/08/18 13:02:25;;;;;;;;;;;;;;;31.78;42.11;100760.00;5043198;28;19996;-63
2022/08/18 13:04:50;;;;;;;;;;;;;;;31.75;42.19;100767.78;5046081;28;19925;-66